createdAt,value
2018-07-27T00:01:24.377Z,5.20
2018-07-27T00:03:52.719Z,4.63
2018-07-27T00:06:21.083Z,4.77
2018-07-27T00:08:49.447Z,5.27
2018-07-27T00:11:17.800Z,4.90
2018-07-27T00:13:46.148Z,5.03
2018-07-27T00:16:14.580Z,4.93
2018-07-27T00:18:42.928Z,4.97
2018-07-27T00:21:11.259Z,4.80
2018-07-27T00:23:39.606Z,4.90
2018-07-27T00:26:07.972Z,4.80
2018-07-27T00:28:36.293Z,5.10
2018-07-27T00:31:04.749Z,5.33
2018-07-27T00:33:33.097Z,5.00
2018-07-27T00:36:01.420Z,4.80
2018-07-27T00:38:29.785Z,5.23
2018-07-27T00:40:58.116Z,5.07
2018-07-27T00:43:26.468Z,5.13
2018-07-27T00:45:54.902Z,4.77
2018-07-27T00:48:23.223Z,5.53
2018-07-27T00:50:51.647Z,5.50
2018-07-27T00:53:19.966Z,5.73
2018-07-27T00:55:48.307Z,5.27
2018-07-27T00:58:16.680Z,5.77
2018-07-27T01:00:45.000Z,5.23
2018-07-27T01:03:13.335Z,5.50
2018-07-27T01:05:41.668Z,5.90
2018-07-27T01:08:10.018Z,5.80
2018-07-27T01:10:38.369Z,5.67
2018-07-27T01:13:06.711Z,5.77
2018-07-27T01:15:35.051Z,6.00
2018-07-27T01:18:03.440Z,5.90
2018-07-27T01:20:31.772Z,5.67
2018-07-27T01:23:00.122Z,5.90
2018-07-27T01:25:28.466Z,6.30
2018-07-27T01:27:56.804Z,6.03
2018-07-27T01:30:25.142Z,5.83
2018-07-27T01:32:53.503Z,5.80
2018-07-27T01:35:21.841Z,6.03
2018-07-27T01:37:50.180Z,5.80
2018-07-27T01:40:18.533Z,5.80
2018-07-27T01:42:46.912Z,6.00
2018-07-27T01:45:15.325Z,5.97
2018-07-27T01:47:43.673Z,5.97
2018-07-27T01:50:12.049Z,5.83
2018-07-27T01:52:40.396Z,5.90
2018-07-27T01:55:08.777Z,6.13
2018-07-27T01:57:37.204Z,6.07
2018-07-27T02:00:06.178Z,6.27
2018-07-27T02:02:34.529Z,6.63
2018-07-27T02:05:02.910Z,6.70
2018-07-27T02:07:31.251Z,5.90
2018-07-27T02:09:59.620Z,6.67
2018-07-27T02:12:28.154Z,7.07
2018-07-27T02:14:56.491Z,6.73
2018-07-27T02:17:24.865Z,6.77
2018-07-27T02:19:53.215Z,6.83
2018-07-27T02:22:21.560Z,6.37
2018-07-27T02:24:50.038Z,7.17
2018-07-27T02:27:18.420Z,6.77
2018-07-27T02:29:46.760Z,6.60
2018-07-27T02:32:15.105Z,7.17
2018-07-27T02:34:43.452Z,6.93
2018-07-27T02:37:11.800Z,6.60
2018-07-27T02:39:40.140Z,6.30
2018-07-27T02:42:08.503Z,7.13
2018-07-27T02:44:36.829Z,6.57
2018-07-27T02:47:05.198Z,6.73
2018-07-27T02:49:33.527Z,7.00
2018-07-27T02:52:01.861Z,6.77
2018-07-27T02:54:30.194Z,7.17
2018-07-27T02:56:58.522Z,7.40
2018-07-27T02:59:26.938Z,6.97
2018-07-27T03:01:55.281Z,7.10
2018-07-27T03:04:23.729Z,7.33
2018-07-27T03:06:52.071Z,7.10
2018-07-27T03:09:20.381Z,7.20
2018-07-27T03:11:48.728Z,7.20
2018-07-27T03:14:17.065Z,7.00
2018-07-27T03:16:45.417Z,7.20
2018-07-27T03:19:13.746Z,6.77
2018-07-27T03:21:42.072Z,7.87
2018-07-27T03:24:10.421Z,7.43
2018-07-27T03:26:38.765Z,7.77
2018-07-27T03:29:07.116Z,7.50
2018-07-27T03:31:35.457Z,7.63
2018-07-27T03:34:03.831Z,7.63
2018-07-27T03:36:32.196Z,7.57
2018-07-27T03:39:00.548Z,7.30
2018-07-27T03:41:28.871Z,7.47
2018-07-27T03:43:57.202Z,7.43
2018-07-27T03:46:25.608Z,7.97
2018-07-27T03:48:54.067Z,7.90
2018-07-27T03:51:22.415Z,7.93
2018-07-27T03:53:50.728Z,7.73
2018-07-27T03:56:19.071Z,7.93
2018-07-27T03:58:47.416Z,8.30
2018-07-27T04:01:15.728Z,7.77
2018-07-27T04:03:44.142Z,7.83
2018-07-27T04:06:12.485Z,8.50
2018-07-27T04:08:40.925Z,8.17
2018-07-27T04:11:09.177Z,8.77
2018-07-27T04:13:37.530Z,8.17
2018-07-27T04:16:06.104Z,7.83
2018-07-27T04:18:34.416Z,8.60
2018-07-27T04:21:02.762Z,7.77
2018-07-27T04:23:31.085Z,9.10
2018-07-27T04:25:59.415Z,9.23
2018-07-27T04:28:27.739Z,8.10
2018-07-27T04:32:20.475Z,9.03
2018-07-27T04:34:48.827Z,9.27
2018-07-27T04:37:17.143Z,8.87
2018-07-27T04:39:45.556Z,8.83
2018-07-27T04:42:13.912Z,9.67
2018-07-27T04:44:42.272Z,8.50
2018-07-27T04:47:10.622Z,9.43
2018-07-27T04:49:38.972Z,9.23
2018-07-27T04:52:07.314Z,9.20
2018-07-27T04:54:35.672Z,10.20
2018-07-27T04:57:04.100Z,9.53
2018-07-27T04:59:32.479Z,9.77
2018-07-27T05:02:00.818Z,9.53
2018-07-27T05:04:29.178Z,9.93
2018-07-27T05:06:57.523Z,9.47
2018-07-27T05:09:25.899Z,9.43
2018-07-27T05:11:54.314Z,9.50
2018-07-27T05:14:22.663Z,9.90
2018-07-27T05:16:51.062Z,9.40
2018-07-27T05:19:19.410Z,9.70
2018-07-27T05:21:47.752Z,10.10
2018-07-27T05:24:16.094Z,9.23
2018-07-27T05:26:44.447Z,9.40
2018-07-27T05:29:12.787Z,9.63
2018-07-27T05:31:41.115Z,8.63
2018-07-27T05:34:09.447Z,10.17
2018-07-27T05:36:37.787Z,8.67
2018-07-27T05:39:08.873Z,9.27
2018-07-27T05:41:37.214Z,9.50
2018-07-27T05:44:05.552Z,8.47
2018-07-27T05:46:33.904Z,9.10
2018-07-27T05:49:02.316Z,10.53
2018-07-27T05:51:30.665Z,9.60
2018-07-27T05:53:59.076Z,9.07
2018-07-27T05:56:27.492Z,8.80
2018-07-27T05:58:55.836Z,8.87
2018-07-27T06:01:24.212Z,8.53
2018-07-27T06:03:52.717Z,8.23
2018-07-27T06:06:21.062Z,8.17
2018-07-27T06:08:49.546Z,7.80
2018-07-27T06:11:17.934Z,9.33
2018-07-27T06:13:46.347Z,9.27
2018-07-27T06:16:14.691Z,8.40
2018-07-27T06:18:43.059Z,7.70
2018-07-27T06:21:11.416Z,7.77
2018-07-27T06:23:39.820Z,8.00
2018-07-27T06:26:08.212Z,7.50
2018-07-27T06:28:36.547Z,7.87
2018-07-27T06:31:04.923Z,7.53
2018-07-27T06:33:33.288Z,7.63
2018-07-27T06:36:01.623Z,6.67
2018-07-27T06:38:30.009Z,6.47
2018-07-27T06:40:58.375Z,6.67
2018-07-27T06:43:26.727Z,6.80
2018-07-27T06:45:55.063Z,5.72
2018-07-27T06:48:23.516Z,7.00
2018-07-27T06:50:52.464Z,5.85
2018-07-27T06:53:20.790Z,5.20
2018-07-27T06:55:49.169Z,6.12
2018-07-27T06:58:17.494Z,4.67
2018-07-27T07:00:45.820Z,4.95
2018-07-27T07:03:14.169Z,5.00
2018-07-27T07:05:42.530Z,4.72
2018-07-27T07:08:10.912Z,4.60
2018-07-27T07:10:39.269Z,4.28
2018-07-27T07:13:07.617Z,4.58
2018-07-27T07:15:35.947Z,4.50
2018-07-27T07:18:04.329Z,4.40
2018-07-27T07:20:32.679Z,4.50
2018-07-27T07:23:00.998Z,4.20
2018-07-27T07:25:29.479Z,4.28
2018-07-27T07:27:57.685Z,3.90
2018-07-27T07:30:26.016Z,3.80
2018-07-27T07:32:54.341Z,3.90
2018-07-27T07:35:22.676Z,4.30
2018-07-27T07:37:51.038Z,3.92
2018-07-27T07:40:19.408Z,4.28
2018-07-27T07:42:47.782Z,3.90
2018-07-27T07:45:16.103Z,4.75
2018-07-27T07:47:44.452Z,5.25
2018-07-27T07:50:12.787Z,5.75
2018-07-27T07:52:41.122Z,6.10
2018-07-27T07:55:09.473Z,6.50
2018-07-27T07:57:37.828Z,7.25
2018-07-27T08:00:07.588Z,7.05
2018-07-27T08:02:35.900Z,7.67
2018-07-27T08:05:04.822Z,7.70
2018-07-27T08:07:33.171Z,8.00
2018-07-27T08:10:01.488Z,7.50
2018-07-27T08:12:29.813Z,8.33
2018-07-27T08:14:58.247Z,7.92
2018-07-27T08:17:26.603Z,8.73
2018-07-27T08:19:54.968Z,7.95
2018-07-27T08:22:23.352Z,8.18
2018-07-27T08:24:51.674Z,7.12
2018-07-27T08:27:19.975Z,7.83
2018-07-27T08:29:48.315Z,8.28
2018-07-27T08:32:16.670Z,7.40
2018-07-27T08:34:45.010Z,6.80
2018-07-27T08:37:13.329Z,7.75
2018-07-27T08:39:42.882Z,6.87
2018-07-27T08:42:11.176Z,6.50
2018-07-27T08:44:40.868Z,6.03
2018-07-27T08:47:09.330Z,5.80
2018-07-27T08:49:37.658Z,5.85
2018-07-27T08:52:06.029Z,5.87
2018-07-27T08:54:34.397Z,5.40
2018-07-27T08:57:02.708Z,5.15
2018-07-27T08:59:31.032Z,5.78
2018-07-27T09:01:59.372Z,5.30
2018-07-27T09:04:27.708Z,4.50
2018-07-27T09:06:56.051Z,4.87
2018-07-27T09:09:24.351Z,4.90
2018-07-27T09:11:52.662Z,5.45
2018-07-27T09:14:21.093Z,3.90
2018-07-27T09:16:49.481Z,3.72
2018-07-27T09:19:17.829Z,3.30
2018-07-27T09:21:46.144Z,3.50
2018-07-27T09:24:14.531Z,3.52
2018-07-27T09:26:42.877Z,3.65
2018-07-27T09:29:11.225Z,3.30
2018-07-27T09:31:39.548Z,4.12
2018-07-27T09:34:08.354Z,3.92
2018-07-27T09:36:36.754Z,3.67
2018-07-27T09:39:08.287Z,3.10
2018-07-27T09:41:36.658Z,3.08
2018-07-27T09:44:05.225Z,3.10
2018-07-27T09:46:33.919Z,3.55
2018-07-27T09:49:02.239Z,3.40
2018-07-27T09:51:30.634Z,3.10
2018-07-27T09:53:58.940Z,3.50
2018-07-27T09:56:27.273Z,3.65
2018-07-27T09:58:55.636Z,3.87
2018-07-27T10:01:25.634Z,3.80
2018-07-27T10:03:54.879Z,4.50
2018-07-27T10:06:23.220Z,4.58
2018-07-27T10:08:51.557Z,4.78
2018-07-27T10:11:20.178Z,5.53
2018-07-27T10:13:48.520Z,5.30
2018-07-27T10:16:16.913Z,5.33
2018-07-27T10:18:45.244Z,5.08
2018-07-27T10:21:13.569Z,5.15
2018-07-27T10:23:41.912Z,5.15
2018-07-27T10:26:10.249Z,5.47
2018-07-27T10:28:38.572Z,4.95
2018-07-27T10:31:06.924Z,5.08
2018-07-27T10:33:35.258Z,4.60
2018-07-27T10:36:03.596Z,4.55
2018-07-27T10:38:31.972Z,4.72
2018-07-27T10:41:00.303Z,3.58
2018-07-27T10:43:28.627Z,2.87
2018-07-27T10:45:56.965Z,2.50
2018-07-27T10:48:25.292Z,2.25
2018-07-27T10:50:53.604Z,2.20
2018-07-27T10:53:21.935Z,2.27
2018-07-27T10:55:50.285Z,2.47
2018-07-27T10:58:18.645Z,2.50
2018-07-27T11:00:46.970Z,2.45
2018-07-27T11:03:15.317Z,2.50
2018-07-27T11:05:43.640Z,2.85
2018-07-27T11:08:11.965Z,2.90
2018-07-27T11:10:40.279Z,2.90
2018-07-27T11:13:08.631Z,3.10
2018-07-27T11:15:36.955Z,3.17
2018-07-27T11:18:05.299Z,3.55
2018-07-27T11:20:33.626Z,3.00
2018-07-27T11:23:01.956Z,3.45
2018-07-27T11:25:30.334Z,3.33
2018-07-27T11:27:58.671Z,3.25
2018-07-27T11:30:27.049Z,3.30
2018-07-27T11:32:55.350Z,3.37
2018-07-27T11:35:23.664Z,2.90
2018-07-27T11:37:52.421Z,3.27
2018-07-27T11:40:20.798Z,4.53
2018-07-27T11:42:49.120Z,3.80
2018-07-27T11:45:17.465Z,3.50
2018-07-27T11:47:45.814Z,3.80
2018-07-27T11:50:14.147Z,3.87
2018-07-27T11:52:42.496Z,3.30
2018-07-27T11:55:10.882Z,3.73
2018-07-27T11:57:39.234Z,3.90
2018-07-27T12:00:08.550Z,3.60
2018-07-27T12:02:36.917Z,3.47
2018-07-27T12:05:05.465Z,3.17
2018-07-27T12:07:33.783Z,3.17
2018-07-27T12:10:02.095Z,3.20
2018-07-27T12:12:30.420Z,3.10
2018-07-27T12:14:58.994Z,3.10
2018-07-27T12:17:27.081Z,3.20
2018-07-27T12:19:55.576Z,3.27
2018-07-27T12:22:23.915Z,3.57
2018-07-27T12:24:52.249Z,3.37
2018-07-27T12:27:20.591Z,3.43
2018-07-27T12:29:48.905Z,3.40
2018-07-27T12:32:17.270Z,3.20
2018-07-27T12:34:45.656Z,3.50
2018-07-27T12:37:13.980Z,3.33
2018-07-27T12:39:42.316Z,3.50
2018-07-27T12:42:10.663Z,3.37
2018-07-27T12:44:39.039Z,3.03
2018-07-27T12:47:07.368Z,3.53
2018-07-27T12:49:35.715Z,2.87
2018-07-27T12:52:04.048Z,3.07
2018-07-27T12:54:32.380Z,3.13
2018-07-27T12:57:00.718Z,3.47
2018-07-27T12:59:29.089Z,3.10
2018-07-27T13:01:57.518Z,3.27
2018-07-27T13:04:25.911Z,3.03
2018-07-27T13:06:54.248Z,2.80
2018-07-27T13:09:22.569Z,3.50
2018-07-27T13:11:50.903Z,3.10
2018-07-27T13:14:19.401Z,3.10
2018-07-27T13:16:47.738Z,3.27
2018-07-27T13:19:16.461Z,2.80
2018-07-27T13:21:45.003Z,3.23
2018-07-27T13:24:13.311Z,2.80
2018-07-27T13:26:41.697Z,2.87
2018-07-27T13:29:09.997Z,3.00
2018-07-27T13:34:50.598Z,3.50
2018-07-27T13:37:19.858Z,3.20
2018-07-27T13:39:49.169Z,3.07
2018-07-27T13:42:18.995Z,3.50
2018-07-27T13:44:47.481Z,3.20
2018-07-27T13:47:16.348Z,3.17
2018-07-27T13:49:44.687Z,2.93
2018-07-27T13:52:13.108Z,2.90
2018-07-27T13:54:41.447Z,3.03
2018-07-27T13:57:09.853Z,3.00
2018-07-27T13:59:38.189Z,3.20
2018-07-27T14:02:07.186Z,2.97
2018-07-27T14:04:35.559Z,2.77
2018-07-27T14:07:04.916Z,3.20
2018-07-27T14:09:33.253Z,3.10
2018-07-27T14:12:01.621Z,2.83
2018-07-27T14:14:29.983Z,3.07
2018-07-27T14:16:58.360Z,3.30
2018-07-27T14:19:27.748Z,3.00
2018-07-27T14:21:56.149Z,3.00
2018-07-27T14:24:24.549Z,3.00
2018-07-27T14:26:52.939Z,3.20
2018-07-27T15:51:19.198Z,3.10
2018-07-27T15:53:47.551Z,3.00
2018-07-27T15:56:15.889Z,3.43
2018-07-27T15:58:44.285Z,3.53
2018-07-27T16:01:12.629Z,4.00
2018-07-27T16:03:40.963Z,3.60
2018-07-27T16:06:09.283Z,3.90
2018-07-27T16:08:37.619Z,3.63
2018-07-27T16:11:05.926Z,3.40
2018-07-27T16:13:34.271Z,3.53
2018-07-27T16:16:02.599Z,3.50
2018-07-27T16:18:30.945Z,3.33
2018-07-27T16:22:23.701Z,3.90
2018-07-27T16:24:52.045Z,3.80
2018-07-27T16:27:20.355Z,3.00
2018-07-27T16:29:48.700Z,3.30
2018-07-27T16:32:17.113Z,3.60
2018-07-27T16:34:45.491Z,3.37
2018-07-27T16:37:13.878Z,3.27
2018-07-27T16:39:42.268Z,3.10
2018-07-27T16:42:10.593Z,3.30
2018-07-27T16:44:38.972Z,3.93
2018-07-27T16:47:07.325Z,3.40
2018-07-27T16:49:35.651Z,3.77
2018-07-27T16:52:04.008Z,3.13
2018-07-27T16:54:32.339Z,3.40
2018-07-27T16:57:00.719Z,3.47
2018-07-27T16:59:29.077Z,3.40
2018-07-27T17:01:57.426Z,3.90
2018-07-27T17:04:25.769Z,3.70
2018-07-27T17:06:54.113Z,3.77
2018-07-27T17:09:22.487Z,4.13
2018-07-27T17:11:50.830Z,3.87
2018-07-27T17:14:19.193Z,4.00
2018-07-27T17:16:47.563Z,4.00
2018-07-27T17:19:15.893Z,3.90
2018-07-27T17:21:44.250Z,3.70
2018-07-27T17:24:12.598Z,4.00
2018-07-27T17:26:41.031Z,3.97
2018-07-27T17:29:09.358Z,4.30
2018-07-27T17:31:37.725Z,4.03
2018-07-27T17:34:06.129Z,4.00
2018-07-27T17:36:34.460Z,3.90
2018-07-27T17:39:02.812Z,3.50
2018-07-27T17:41:31.179Z,4.00
2018-07-27T17:43:59.526Z,4.10
2018-07-27T17:46:27.871Z,3.70
2018-07-27T17:48:56.210Z,3.97
2018-07-27T17:51:24.560Z,4.20
2018-07-27T17:53:52.899Z,3.90
2018-07-27T17:56:21.231Z,4.00
2018-07-27T17:58:49.554Z,4.30
2018-07-27T18:01:17.872Z,4.80
2018-07-27T18:03:46.252Z,3.90
2018-07-27T18:06:14.625Z,3.83
2018-07-27T18:08:42.953Z,4.17
2018-07-27T18:11:11.450Z,4.40
2018-07-27T18:13:40.220Z,3.93
2018-07-27T18:16:08.717Z,5.30
2018-07-27T18:18:37.205Z,4.17
2018-07-27T18:21:05.579Z,3.70
2018-07-27T18:23:33.993Z,4.27
2018-07-27T18:26:02.375Z,4.17
2018-07-27T18:28:30.756Z,4.23
2018-07-27T18:30:59.096Z,4.50
2018-07-27T18:33:27.474Z,4.50
2018-07-27T18:35:55.834Z,4.73
2018-07-27T18:38:24.212Z,4.03
2018-07-27T18:40:52.519Z,4.73
2018-07-27T18:43:20.891Z,4.70
2018-07-27T18:45:49.264Z,4.80
2018-07-27T18:48:17.618Z,4.53
2018-07-27T18:50:45.932Z,5.20
2018-07-27T18:53:14.319Z,4.60
2018-07-27T18:55:42.663Z,5.00
2018-07-27T18:58:11.076Z,5.33
2018-07-27T19:00:39.440Z,5.53
2018-07-27T19:03:08.078Z,5.57
2018-07-27T19:05:36.505Z,5.63
2018-07-27T19:08:04.920Z,5.30
2018-07-27T19:10:33.286Z,5.87
2018-07-27T19:13:01.628Z,5.87
2018-07-27T19:15:29.972Z,5.17
2018-07-27T19:17:58.405Z,6.17
2018-07-27T19:20:26.751Z,5.33
2018-07-27T19:22:55.061Z,5.83
2018-07-27T19:25:23.390Z,5.90
2018-07-27T19:27:51.739Z,5.60
2018-07-27T19:30:20.088Z,6.43
2018-07-27T19:32:48.439Z,6.33
2018-07-27T19:35:16.777Z,6.30
2018-07-27T19:37:45.169Z,6.17
2018-07-27T19:40:13.512Z,6.50
2018-07-27T19:42:41.882Z,5.73
2018-07-27T19:45:10.293Z,5.67
2018-07-27T19:47:38.657Z,6.33
2018-07-27T19:50:07.013Z,5.57
2018-07-27T19:52:35.338Z,6.20
2018-07-27T19:55:03.869Z,6.20
2018-07-27T19:57:32.251Z,6.80
2018-07-27T20:00:00.621Z,6.77
2018-07-27T20:02:29.004Z,6.33
2018-07-27T20:04:57.335Z,6.33
2018-07-27T20:07:25.672Z,6.20
2018-07-27T20:09:54.027Z,6.37
2018-07-27T20:12:22.358Z,6.63
2018-07-27T20:14:50.658Z,6.50
2018-07-27T20:17:18.979Z,6.30
2018-07-27T20:19:47.308Z,6.60
2018-07-27T20:22:15.715Z,6.03
2018-07-27T20:24:44.048Z,6.40
2018-07-27T20:27:12.369Z,5.80
2018-07-27T20:29:40.728Z,5.97
2018-07-27T20:32:09.069Z,5.87
2018-07-27T20:34:37.428Z,5.63
2018-07-27T20:37:06.602Z,6.33
2018-07-27T20:39:34.953Z,7.10
2018-07-27T20:42:03.340Z,6.53
2018-07-27T20:44:31.696Z,8.87
2018-07-27T20:47:00.018Z,5.90
2018-07-27T20:49:28.390Z,6.57
2018-07-27T20:52:00.697Z,6.20
2018-07-27T20:54:29.371Z,5.87
2018-07-27T20:56:58.072Z,5.60
2018-07-27T20:59:26.449Z,5.60
2018-07-27T21:01:54.796Z,6.03
2018-07-27T21:04:23.146Z,6.13
2018-07-27T21:06:51.680Z,6.03
2018-07-27T21:09:20.017Z,5.77
2018-07-27T21:11:48.445Z,5.73
2018-07-27T21:14:16.789Z,5.57
2018-07-27T21:16:45.146Z,5.63
2018-07-27T21:19:13.488Z,5.73
2018-07-27T21:21:41.881Z,5.87
2018-07-27T21:24:10.543Z,6.30
2018-07-27T21:26:38.875Z,8.10
2018-07-27T21:29:07.216Z,6.20
2018-07-27T21:31:35.547Z,5.70
2018-07-27T21:34:03.926Z,6.07
2018-07-27T21:36:32.376Z,5.93
2018-07-27T21:39:00.639Z,6.30
2018-07-27T21:41:28.969Z,5.83
2018-07-27T21:43:57.297Z,5.73
2018-07-27T21:46:25.642Z,6.53
2018-07-27T21:48:54.002Z,6.20
2018-07-27T21:51:22.329Z,5.70
2018-07-27T21:53:50.654Z,5.47
2018-07-27T21:56:18.951Z,6.30
2018-07-27T21:58:47.289Z,5.83
2018-07-27T22:01:15.606Z,6.03
2018-07-27T22:03:43.948Z,6.13
2018-07-27T22:06:12.267Z,6.00
2018-07-27T22:08:40.614Z,5.90
2018-07-27T22:11:08.935Z,5.70
2018-07-27T22:13:37.376Z,5.83
2018-07-27T22:16:05.742Z,6.40
2018-07-27T22:18:34.088Z,5.23
2018-07-27T22:21:02.420Z,5.73
2018-07-27T22:23:30.755Z,5.73
2018-07-27T22:25:59.072Z,6.00
2018-07-27T22:28:27.401Z,6.23
2018-07-27T22:30:55.794Z,5.73
2018-07-27T22:33:24.128Z,6.40
2018-07-27T22:35:52.464Z,6.03
2018-07-27T22:38:20.805Z,6.30
2018-07-27T22:40:49.242Z,5.97
2018-07-27T22:43:17.726Z,6.03
2018-07-27T22:45:46.053Z,5.80
2018-07-27T22:48:14.740Z,6.30
2018-07-27T22:50:43.071Z,6.03
2018-07-27T22:53:11.393Z,6.20
2018-07-27T22:55:39.751Z,5.60
2018-07-27T22:58:08.078Z,6.17
2018-07-27T23:00:36.398Z,6.37
2018-07-27T23:03:04.823Z,6.30
2018-07-27T23:05:33.151Z,6.00
2018-07-27T23:08:01.476Z,5.77
2018-07-27T23:10:29.847Z,6.13
2018-07-27T23:12:58.170Z,6.20
2018-07-27T23:15:26.564Z,5.90
2018-07-27T23:17:54.893Z,6.03
2018-07-27T23:20:23.239Z,6.37
2018-07-27T23:22:51.542Z,6.00
2018-07-27T23:25:19.879Z,6.30
2018-07-27T23:27:48.208Z,6.20
2018-07-27T23:30:16.563Z,5.50
2018-07-27T23:32:44.949Z,6.10
2018-07-27T23:35:13.957Z,5.97
2018-07-27T23:37:42.284Z,6.20
2018-07-27T23:40:10.627Z,5.90
2018-07-27T23:42:38.973Z,5.93
2018-07-27T23:45:08.343Z,6.60
2018-07-27T23:47:36.698Z,6.00
2018-07-27T23:50:05.699Z,5.97
2018-07-27T23:52:34.041Z,6.13
2018-07-27T23:55:02.408Z,5.77
2018-07-27T23:57:30.741Z,5.67
2018-07-27T23:59:59.066Z,8.37
